sensor_id;sensor_type;location;lat;lon;timestamp;pressure;altitude;pressure_sealevel;temperature;humidity
64200;BME280;50516;52.272;5.136;2023-07-13T00:01:31;101320.13;;;18.73;81.39
64200;BME280;50516;52.272;5.136;2023-07-13T00:03:57;101330.59;;;18.76;81.47
64200;BME280;50516;52.272;5.136;2023-07-13T00:06:23;101319.63;;;18.71;81.69
64200;BME280;50516;52.272;5.136;2023-07-13T00:08:48;101320.44;;;18.71;81.59
64200;BME280;50516;52.272;5.136;2023-07-13T00:11:15;101329.06;;;18.47;82.71
64200;BME280;50516;52.272;5.136;2023-07-13T00:13:40;101323.81;;;18.46;82.79
64200;BME280;50516;52.272;5.136;2023-07-13T00:16:07;101331.53;;;18.49;82.93
64200;BME280;50516;52.272;5.136;2023-07-13T00:18:32;101331.66;;;18.43;83.29
64200;BME280;50516;52.272;5.136;2023-07-13T00:20:58;101323.00;;;18.45;83.48
64200;BME280;50516;52.272;5.136;2023-07-13T00:23:37;101325.47;;;18.47;83.15
64200;BME280;50516;52.272;5.136;2023-07-13T00:26:04;101324.47;;;18.42;83.65
64200;BME280;50516;52.272;5.136;2023-07-13T00:28:29;101318.78;;;18.48;83.72
64200;BME280;50516;52.272;5.136;2023-07-13T00:30:55;101323.72;;;18.51;83.40
64200;BME280;50516;52.272;5.136;2023-07-13T00:33:20;101325.47;;;18.47;83.81
64200;BME280;50516;52.272;5.136;2023-07-13T00:35:46;101312.63;;;18.37;83.77
64200;BME280;50516;52.272;5.136;2023-07-13T00:38:12;101314.19;;;18.29;84.31
64200;BME280;50516;52.272;5.136;2023-07-13T00:40:37;101324.88;;;18.36;84.27
64200;BME280;50516;52.272;5.136;2023-07-13T00:43:09;101325.00;;;18.31;84.25
64200;BME280;50516;52.272;5.136;2023-07-13T00:48:31;101318.50;;;18.35;84.26
64200;BME280;50516;52.272;5.136;2023-07-13T00:50:58;101317.56;;;18.40;83.91
64200;BME280;50516;52.272;5.136;2023-07-13T00:53:27;101318.50;;;18.35;84.12
64200;BME280;50516;52.272;5.136;2023-07-13T00:55:55;101313.13;;;18.39;84.21
64200;BME280;50516;52.272;5.136;2023-07-13T00:58:22;101310.59;;;18.29;84.67
64200;BME280;50516;52.272;5.136;2023-07-13T01:00:48;101316.22;;;18.37;84.25
64200;BME280;50516;52.272;5.136;2023-07-13T01:03:15;101324.34;;;18.48;83.86
64200;BME280;50516;52.272;5.136;2023-07-13T01:05:41;101325.66;;;18.50;83.63
64200;BME280;50516;52.272;5.136;2023-07-13T01:08:07;101324.13;;;18.44;84.00
64200;BME280;50516;52.272;5.136;2023-07-13T01:10:33;101327.03;;;18.39;84.24
64200;BME280;50516;52.272;5.136;2023-07-13T01:13:07;101328.19;;;18.38;84.19
64200;BME280;50516;52.272;5.136;2023-07-13T01:15:39;101332.91;;;18.37;84.27
64200;BME280;50516;52.272;5.136;2023-07-13T01:18:08;101331.47;;;18.40;84.38
64200;BME280;50516;52.272;5.136;2023-07-13T01:20:35;101322.50;;;18.43;84.05
64200;BME280;50516;52.272;5.136;2023-07-13T01:23:03;101322.00;;;18.41;84.33
64200;BME280;50516;52.272;5.136;2023-07-13T01:25:28;101334.94;;;18.46;84.27
64200;BME280;50516;52.272;5.136;2023-07-13T01:27:54;101327.63;;;18.50;84.31
64200;BME280;50516;52.272;5.136;2023-07-13T01:30:19;101334.56;;;18.38;84.83
64200;BME280;50516;52.272;5.136;2023-07-13T01:32:45;101330.03;;;18.42;85.07
64200;BME280;50516;52.272;5.136;2023-07-13T01:35:10;101341.16;;;18.42;84.96
64200;BME280;50516;52.272;5.136;2023-07-13T01:37:37;101334.06;;;18.36;85.34
64200;BME280;50516;52.272;5.136;2023-07-13T01:40:03;101335.19;;;18.35;85.07
64200;BME280;50516;52.272;5.136;2023-07-13T01:42:29;101344.03;;;18.37;85.26
64200;BME280;50516;52.272;5.136;2023-07-13T01:44:55;101327.34;;;18.37;85.60
64200;BME280;50516;52.272;5.136;2023-07-13T01:47:21;101338.91;;;18.31;85.44
64200;BME280;50516;52.272;5.136;2023-07-13T01:49:47;101338.22;;;18.25;85.91
64200;BME280;50516;52.272;5.136;2023-07-13T01:52:12;101342.03;;;18.15;86.05
64200;BME280;50516;52.272;5.136;2023-07-13T01:54:38;101342.34;;;18.14;86.51
64200;BME280;50516;52.272;5.136;2023-07-13T01:57:03;101349.22;;;18.16;86.39
64200;BME280;50516;52.272;5.136;2023-07-13T01:59:29;101338.31;;;18.20;85.98
64200;BME280;50516;52.272;5.136;2023-07-13T02:01:54;101341.09;;;18.20;85.92
64200;BME280;50516;52.272;5.136;2023-07-13T02:04:19;101339.56;;;18.14;86.05
64200;BME280;50516;52.272;5.136;2023-07-13T02:06:45;101338.72;;;18.13;86.31
64200;BME280;50516;52.272;5.136;2023-07-13T02:09:10;101339.03;;;18.12;86.25
64200;BME280;50516;52.272;5.136;2023-07-13T02:11:35;101347.50;;;18.06;86.01
64200;BME280;50516;52.272;5.136;2023-07-13T02:14:01;101347.63;;;18.01;86.29
64200;BME280;50516;52.272;5.136;2023-07-13T02:16:28;101350.50;;;17.96;86.49
64200;BME280;50516;52.272;5.136;2023-07-13T02:18:53;101351.50;;;17.86;87.24
64200;BME280;50516;52.272;5.136;2023-07-13T02:21:20;101347.06;;;17.85;87.17
64200;BME280;50516;52.272;5.136;2023-07-13T02:23:45;101358.72;;;17.87;86.76
64200;BME280;50516;52.272;5.136;2023-07-13T02:26:11;101356.69;;;17.93;86.69
64200;BME280;50516;52.272;5.136;2023-07-13T02:28:36;101358.09;;;17.91;86.61
64200;BME280;50516;52.272;5.136;2023-07-13T02:31:09;101364.09;;;17.98;86.07
64200;BME280;50516;52.272;5.136;2023-07-13T02:33:35;101361.13;;;17.94;86.12
64200;BME280;50516;52.272;5.136;2023-07-13T02:36:01;101357.28;;;17.90;85.98
64200;BME280;50516;52.272;5.136;2023-07-13T02:38:26;101351.31;;;17.83;86.45
64200;BME280;50516;52.272;5.136;2023-07-13T02:40:52;101358.72;;;17.74;86.44
64200;BME280;50516;52.272;5.136;2023-07-13T02:43:18;101355.44;;;17.72;86.72
64200;BME280;50516;52.272;5.136;2023-07-13T02:45:44;101352.53;;;17.77;86.45
64200;BME280;50516;52.272;5.136;2023-07-13T02:48:10;101360.03;;;17.76;86.52
64200;BME280;50516;52.272;5.136;2023-07-13T02:50:35;101362.59;;;17.73;86.64
64200;BME280;50516;52.272;5.136;2023-07-13T02:53:00;101359.31;;;17.70;86.63
64200;BME280;50516;52.272;5.136;2023-07-13T02:55:26;101363.03;;;17.66;87.00
64200;BME280;50516;52.272;5.136;2023-07-13T02:57:51;101364.56;;;17.72;86.32
64200;BME280;50516;52.272;5.136;2023-07-13T03:00:17;101376.59;;;17.67;86.95
64200;BME280;50516;52.272;5.136;2023-07-13T03:02:43;101363.22;;;17.56;87.56
64200;BME280;50516;52.272;5.136;2023-07-13T03:05:08;101361.78;;;17.58;87.49
64200;BME280;50516;52.272;5.136;2023-07-13T03:07:37;101363.34;;;17.50;87.91
64200;BME280;50516;52.272;5.136;2023-07-13T03:10:03;101364.00;;;17.42;88.04
64200;BME280;50516;52.272;5.136;2023-07-13T03:12:29;101366.28;;;17.40;87.92
64200;BME280;50516;52.272;5.136;2023-07-13T03:14:54;101364.47;;;17.49;87.41
64200;BME280;50516;52.272;5.136;2023-07-13T03:17:19;101364.25;;;17.46;87.45
64200;BME280;50516;52.272;5.136;2023-07-13T03:19:45;101374.59;;;17.40;87.19
64200;BME280;50516;52.272;5.136;2023-07-13T03:22:14;101369.81;;;17.46;86.94
64200;BME280;50516;52.272;5.136;2023-07-13T03:24:40;101371.03;;;17.40;86.60
64200;BME280;50516;52.272;5.136;2023-07-13T03:27:06;101375.53;;;17.36;86.44
64200;BME280;50516;52.272;5.136;2023-07-13T03:29:31;101368.56;;;17.52;85.58
64200;BME280;50516;52.272;5.136;2023-07-13T03:31:56;101362.50;;;17.36;85.96
64200;BME280;50516;52.272;5.136;2023-07-13T03:34:22;101367.75;;;17.38;85.66
64200;BME280;50516;52.272;5.136;2023-07-13T03:36:47;101367.00;;;17.32;85.31
64200;BME280;50516;52.272;5.136;2023-07-13T03:39:13;101369.97;;;17.22;85.35
64200;BME280;50516;52.272;5.136;2023-07-13T03:41:38;101382.09;;;17.26;85.43
64200;BME280;50516;52.272;5.136;2023-07-13T03:44:03;101381.88;;;17.22;84.96
64200;BME280;50516;52.272;5.136;2023-07-13T03:46:29;101380.81;;;17.18;85.40
64200;BME280;50516;52.272;5.136;2023-07-13T03:48:56;101378.03;;;17.18;85.31
64200;BME280;50516;52.272;5.136;2023-07-13T03:51:22;101378.59;;;17.34;84.64
64200;BME280;50516;52.272;5.136;2023-07-13T03:53:47;101375.22;;;17.37;84.45
64200;BME280;50516;52.272;5.136;2023-07-13T03:56:14;101387.94;;;17.24;85.00
64200;BME280;50516;52.272;5.136;2023-07-13T03:58:41;101379.75;;;17.33;84.84
64200;BME280;50516;52.272;5.136;2023-07-13T04:01:09;101388.19;;;17.42;84.64
64200;BME280;50516;52.272;5.136;2023-07-13T04:03:35;101388.28;;;17.37;84.86
64200;BME280;50516;52.272;5.136;2023-07-13T04:06:02;101392.81;;;17.46;84.39
64200;BME280;50516;52.272;5.136;2023-07-13T04:08:28;101387.50;;;17.64;83.72
64200;BME280;50516;52.272;5.136;2023-07-13T04:10:54;101388.00;;;17.66;83.78
64200;BME280;50516;52.272;5.136;2023-07-13T04:13:20;101396.44;;;17.75;83.58
64200;BME280;50516;52.272;5.136;2023-07-13T04:15:45;101398.41;;;17.74;83.69
64200;BME280;50516;52.272;5.136;2023-07-13T04:18:11;101401.50;;;17.73;83.73
64200;BME280;50516;52.272;5.136;2023-07-13T04:20:36;101405.22;;;17.82;83.81
64200;BME280;50516;52.272;5.136;2023-07-13T04:23:01;101402.63;;;17.85;83.35
64200;BME280;50516;52.272;5.136;2023-07-13T04:25:27;101404.69;;;17.80;84.10
64200;BME280;50516;52.272;5.136;2023-07-13T04:27:53;101399.03;;;17.85;84.10
64200;BME280;50516;52.272;5.136;2023-07-13T04:30:19;101399.28;;;18.02;83.65
64200;BME280;50516;52.272;5.136;2023-07-13T04:32:45;101409.78;;;18.05;83.49
64200;BME280;50516;52.272;5.136;2023-07-13T04:35:10;101408.75;;;18.15;83.48
64200;BME280;50516;52.272;5.136;2023-07-13T04:37:35;101407.16;;;18.37;82.84
64200;BME280;50516;52.272;5.136;2023-07-13T04:40:01;101413.69;;;18.18;84.14
64200;BME280;50516;52.272;5.136;2023-07-13T04:42:28;101417.66;;;18.40;83.43
64200;BME280;50516;52.272;5.136;2023-07-13T04:44:53;101419.69;;;18.48;83.16
64200;BME280;50516;52.272;5.136;2023-07-13T04:47:19;101425.00;;;18.72;82.09
64200;BME280;50516;52.272;5.136;2023-07-13T04:49:45;101418.09;;;18.84;81.68
64200;BME280;50516;52.272;5.136;2023-07-13T04:52:11;101424.88;;;18.91;81.57
64200;BME280;50516;52.272;5.136;2023-07-13T04:54:37;101423.63;;;18.97;81.66
64200;BME280;50516;52.272;5.136;2023-07-13T04:57:03;101418.16;;;19.15;80.87
64200;BME280;50516;52.272;5.136;2023-07-13T04:59:31;101430.69;;;19.26;80.36
64200;BME280;50516;52.272;5.136;2023-07-13T05:01:57;101426.59;;;19.24;80.62
64200;BME280;50516;52.272;5.136;2023-07-13T05:04:22;101426.59;;;19.24;81.05
64200;BME280;50516;52.272;5.136;2023-07-13T05:06:48;101432.59;;;19.40;80.55
64200;BME280;50516;52.272;5.136;2023-07-13T05:09:13;101431.28;;;19.46;80.33
64200;BME280;50516;52.272;5.136;2023-07-13T05:11:38;101426.31;;;19.34;80.97
64200;BME280;50516;52.272;5.136;2023-07-13T05:14:04;101436.63;;;19.33;81.16
64200;BME280;50516;52.272;5.136;2023-07-13T05:16:30;101427.88;;;19.49;81.14
64200;BME280;50516;52.272;5.136;2023-07-13T05:18:57;101444.50;;;19.63;80.82
64200;BME280;50516;52.272;5.136;2023-07-13T05:21:22;101443.38;;;19.64;80.97
64200;BME280;50516;52.272;5.136;2023-07-13T05:23:47;101446.41;;;19.76;80.60
64200;BME280;50516;52.272;5.136;2023-07-13T05:26:12;101444.00;;;19.83;80.22
64200;BME280;50516;52.272;5.136;2023-07-13T05:28:38;101445.84;;;19.97;80.35
64200;BME280;50516;52.272;5.136;2023-07-13T05:31:04;101448.63;;;19.97;80.18
64200;BME280;50516;52.272;5.136;2023-07-13T05:33:30;101449.69;;;20.18;79.70
64200;BME280;50516;52.272;5.136;2023-07-13T05:35:56;101456.44;;;20.17;79.08
64200;BME280;50516;52.272;5.136;2023-07-13T05:38:21;101458.56;;;20.20;78.91
64200;BME280;50516;52.272;5.136;2023-07-13T05:40:47;101457.72;;;20.20;78.71
64200;BME280;50516;52.272;5.136;2023-07-13T05:43:13;101470.22;;;20.31;78.99
64200;BME280;50516;52.272;5.136;2023-07-13T05:45:39;101459.44;;;20.47;78.23
64200;BME280;50516;52.272;5.136;2023-07-13T05:48:04;101458.31;;;20.48;78.48
64200;BME280;50516;52.272;5.136;2023-07-13T05:50:30;101460.13;;;20.61;77.66
64200;BME280;50516;52.272;5.136;2023-07-13T05:52:55;101458.72;;;20.64;76.93
64200;BME280;50516;52.272;5.136;2023-07-13T05:55:21;101464.59;;;20.63;77.75
64200;BME280;50516;52.272;5.136;2023-07-13T05:57:47;101467.59;;;20.84;77.06
64200;BME280;50516;52.272;5.136;2023-07-13T06:00:12;101469.72;;;20.95;76.66
64200;BME280;50516;52.272;5.136;2023-07-13T06:02:38;101473.00;;;20.97;76.25
64200;BME280;50516;52.272;5.136;2023-07-13T06:05:03;101472.53;;;21.13;76.24
64200;BME280;50516;52.272;5.136;2023-07-13T06:07:30;101470.19;;;21.32;75.82
64200;BME280;50516;52.272;5.136;2023-07-13T06:09:55;101476.78;;;21.28;75.53
64200;BME280;50516;52.272;5.136;2023-07-13T06:12:21;101481.84;;;21.43;74.84
64200;BME280;50516;52.272;5.136;2023-07-13T06:14:46;101485.00;;;21.50;74.19
64200;BME280;50516;52.272;5.136;2023-07-13T06:17:11;101484.16;;;21.32;75.11
64200;BME280;50516;52.272;5.136;2023-07-13T06:19:37;101490.56;;;20.81;77.04
64200;BME280;50516;52.272;5.136;2023-07-13T06:22:02;101492.75;;;20.52;77.91
64200;BME280;50516;52.272;5.136;2023-07-13T06:24:28;101494.69;;;20.34;78.30
64200;BME280;50516;52.272;5.136;2023-07-13T06:26:53;101490.25;;;21.00;77.23
64200;BME280;50516;52.272;5.136;2023-07-13T06:29:19;101490.41;;;21.12;75.64
64200;BME280;50516;52.272;5.136;2023-07-13T06:31:44;101485.47;;;21.61;74.31
64200;BME280;50516;52.272;5.136;2023-07-13T06:34:09;101485.28;;;21.66;73.78
64200;BME280;50516;52.272;5.136;2023-07-13T06:36:35;101477.66;;;21.84;73.28
64200;BME280;50516;52.272;5.136;2023-07-13T06:39:02;101490.78;;;22.01;72.51
64200;BME280;50516;52.272;5.136;2023-07-13T06:41:27;101488.16;;;22.43;70.67
64200;BME280;50516;52.272;5.136;2023-07-13T06:43:52;101486.75;;;22.79;69.55
64200;BME280;50516;52.272;5.136;2023-07-13T06:46:21;101491.34;;;23.05;69.01
64200;BME280;50516;52.272;5.136;2023-07-13T06:48:47;101500.53;;;23.14;68.08
64200;BME280;50516;52.272;5.136;2023-07-13T06:51:12;101494.34;;;23.42;67.31
64200;BME280;50516;52.272;5.136;2023-07-13T06:53:37;101491.09;;;23.52;66.43
64200;BME280;50516;52.272;5.136;2023-07-13T06:56:03;101483.50;;;22.98;66.89
64200;BME280;50516;52.272;5.136;2023-07-13T06:58:28;101483.16;;;22.49;68.87
64200;BME280;50516;52.272;5.136;2023-07-13T07:00:54;101496.31;;;21.63;69.06
64200;BME280;50516;52.272;5.136;2023-07-13T07:03:19;101507.50;;;21.02;72.47
64200;BME280;50516;52.272;5.136;2023-07-13T07:05:44;101504.03;;;20.87;73.11
64200;BME280;50516;52.272;5.136;2023-07-13T07:08:10;101504.13;;;20.56;71.04
64200;BME280;50516;52.272;5.136;2023-07-13T07:10:35;101505.50;;;20.27;71.67
64200;BME280;50516;52.272;5.136;2023-07-13T07:13:01;101516.41;;;20.06;72.69
64200;BME280;50516;52.272;5.136;2023-07-13T07:15:26;101519.75;;;19.94;73.77
64200;BME280;50516;52.272;5.136;2023-07-13T07:17:52;101532.56;;;19.95;73.75
64200;BME280;50516;52.272;5.136;2023-07-13T07:20:17;101538.91;;;19.64;75.48
64200;BME280;50516;52.272;5.136;2023-07-13T07:22:43;101533.69;;;19.71;76.17
64200;BME280;50516;52.272;5.136;2023-07-13T07:25:08;101540.28;;;19.98;75.46
64200;BME280;50516;52.272;5.136;2023-07-13T07:27:34;101530.66;;;20.45;73.40
64200;BME280;50516;52.272;5.136;2023-07-13T07:29:59;101545.91;;;20.96;70.10
64200;BME280;50516;52.272;5.136;2023-07-13T07:32:25;101545.41;;;20.94;69.00
64200;BME280;50516;52.272;5.136;2023-07-13T07:34:50;101548.38;;;20.97;67.04
64200;BME280;50516;52.272;5.136;2023-07-13T07:37:16;101543.19;;;21.48;66.05
64200;BME280;50516;52.272;5.136;2023-07-13T07:39:42;101538.72;;;21.65;64.88
64200;BME280;50516;52.272;5.136;2023-07-13T07:42:08;101542.63;;;21.90;63.83
64200;BME280;50516;52.272;5.136;2023-07-13T07:44:34;101543.25;;;21.96;64.63
64200;BME280;50516;52.272;5.136;2023-07-13T07:47:00;101542.16;;;21.79;63.67
64200;BME280;50516;52.272;5.136;2023-07-13T07:49:26;101539.03;;;21.11;64.83
64200;BME280;50516;52.272;5.136;2023-07-13T07:51:51;101545.31;;;21.25;65.92
64200;BME280;50516;52.272;5.136;2023-07-13T07:54:17;101534.94;;;21.34;65.74
64200;BME280;50516;52.272;5.136;2023-07-13T07:56:43;101535.44;;;21.19;66.39
64200;BME280;50516;52.272;5.136;2023-07-13T07:59:08;101540.19;;;21.10;66.11
64200;BME280;50516;52.272;5.136;2023-07-13T08:01:34;101537.56;;;21.31;66.38
64200;BME280;50516;52.272;5.136;2023-07-13T08:03:59;101538.66;;;21.91;65.04
64200;BME280;50516;52.272;5.136;2023-07-13T08:06:25;101539.84;;;22.37;63.79
64200;BME280;50516;52.272;5.136;2023-07-13T08:08:50;101534.31;;;22.88;62.97
64200;BME280;50516;52.272;5.136;2023-07-13T08:11:16;101531.03;;;23.28;62.11
64200;BME280;50516;52.272;5.136;2023-07-13T08:13:41;101523.47;;;23.29;62.07
64200;BME280;50516;52.272;5.136;2023-07-13T08:16:07;101525.25;;;23.67;61.95
64200;BME280;50516;52.272;5.136;2023-07-13T08:18:32;101522.66;;;23.62;61.97
64200;BME280;50516;52.272;5.136;2023-07-13T08:20:58;101514.44;;;23.44;63.56
64200;BME280;50516;52.272;5.136;2023-07-13T08:23:25;101534.47;;;23.13;64.06
64200;BME280;50516;52.272;5.136;2023-07-13T08:25:53;101523.44;;;22.57;65.60
64200;BME280;50516;52.272;5.136;2023-07-13T08:28:20;101532.13;;;22.34;66.12
64200;BME280;50516;52.272;5.136;2023-07-13T08:30:45;101538.41;;;22.22;67.11
64200;BME280;50516;52.272;5.136;2023-07-13T08:33:15;101533.44;;;22.67;66.20
64200;BME280;50516;52.272;5.136;2023-07-13T08:35:40;101524.06;;;23.34;63.32
64200;BME280;50516;52.272;5.136;2023-07-13T08:38:05;101540.66;;;23.40;62.95
64200;BME280;50516;52.272;5.136;2023-07-13T08:40:30;101534.19;;;23.27;64.12
64200;BME280;50516;52.272;5.136;2023-07-13T08:42:59;101542.91;;;23.04;63.85
64200;BME280;50516;52.272;5.136;2023-07-13T08:48:04;101560.03;;;23.11;63.87
64200;BME280;50516;52.272;5.136;2023-07-13T08:50:34;101549.38;;;23.47;62.50
64200;BME280;50516;52.272;5.136;2023-07-13T08:53:02;101556.00;;;23.42;62.98
64200;BME280;50516;52.272;5.136;2023-07-13T08:55:31;101544.53;;;23.68;62.68
64200;BME280;50516;52.272;5.136;2023-07-13T08:58:11;101541.31;;;24.37;61.00
64200;BME280;50516;52.272;5.136;2023-07-13T09:00:48;101547.53;;;24.79;59.81
64200;BME280;50516;52.272;5.136;2023-07-13T09:03:21;101547.38;;;24.51;60.38
64200;BME280;50516;52.272;5.136;2023-07-13T09:05:52;101537.22;;;24.34;59.34
64200;BME280;50516;52.272;5.136;2023-07-13T09:11:10;101556.28;;;22.77;63.80
64200;BME280;50516;52.272;5.136;2023-07-13T09:13:51;101551.22;;;23.22;62.39
64200;BME280;50516;52.272;5.136;2023-07-13T09:16:20;101546.50;;;23.89;60.64
64200;BME280;50516;52.272;5.136;2023-07-13T09:18:49;101549.72;;;22.94;62.59
64200;BME280;50516;52.272;5.136;2023-07-13T09:21:18;101569.22;;;22.52;63.97
64200;BME280;50516;52.272;5.136;2023-07-13T09:23:47;101579.16;;;22.50;63.25
64200;BME280;50516;52.272;5.136;2023-07-13T09:26:18;101576.91;;;22.17;64.00
64200;BME280;50516;52.272;5.136;2023-07-13T09:28:45;101567.91;;;22.02;64.46
64200;BME280;50516;52.272;5.136;2023-07-13T09:31:13;101572.53;;;22.84;62.78
64200;BME280;50516;52.272;5.136;2023-07-13T09:33:40;101572.53;;;23.35;60.13
64200;BME280;50516;52.272;5.136;2023-07-13T09:38:43;101561.25;;;23.98;58.99
64200;BME280;50516;52.272;5.136;2023-07-13T09:44:14;101564.66;;;24.04;57.64
64200;BME280;50516;52.272;5.136;2023-07-13T09:46:44;101566.56;;;23.37;56.88
64200;BME280;50516;52.272;5.136;2023-07-13T09:49:11;101574.09;;;23.24;55.85
64200;BME280;50516;52.272;5.136;2023-07-13T09:51:45;101578.88;;;22.72;55.40
64200;BME280;50516;52.272;5.136;2023-07-13T09:54:21;101574.63;;;23.80;55.43
64200;BME280;50516;52.272;5.136;2023-07-13T09:56:57;101577.06;;;24.03;53.62
64200;BME280;50516;52.272;5.136;2023-07-13T09:59:26;101569.88;;;23.93;54.29
64200;BME280;50516;52.272;5.136;2023-07-13T10:01:52;101580.50;;;23.87;54.67
64200;BME280;50516;52.272;5.136;2023-07-13T10:04:19;101579.84;;;23.27;56.59
64200;BME280;50516;52.272;5.136;2023-07-13T10:06:45;101587.72;;;23.34;55.94
64200;BME280;50516;52.272;5.136;2023-07-13T10:09:15;101582.50;;;23.66;55.07
64200;BME280;50516;52.272;5.136;2023-07-13T10:11:41;101586.59;;;23.26;53.75
64200;BME280;50516;52.272;5.136;2023-07-13T10:14:33;101594.22;;;23.26;54.19
64200;BME280;50516;52.272;5.136;2023-07-13T10:17:00;101602.41;;;23.31;54.99
64200;BME280;50516;52.272;5.136;2023-07-13T10:19:31;101591.78;;;23.58;55.04
64200;BME280;50516;52.272;5.136;2023-07-13T10:22:27;101596.50;;;23.87;54.48
64200;BME280;50516;52.272;5.136;2023-07-13T10:24:55;101600.03;;;23.42;54.26
64200;BME280;50516;52.272;5.136;2023-07-13T10:27:30;101606.97;;;23.57;53.95
64200;BME280;50516;52.272;5.136;2023-07-13T10:30:15;101602.75;;;24.05;54.07
64200;BME280;50516;52.272;5.136;2023-07-13T10:32:43;101600.47;;;24.19;53.84
64200;BME280;50516;52.272;5.136;2023-07-13T10:35:14;101604.13;;;23.99;54.36
64200;BME280;50516;52.272;5.136;2023-07-13T10:37:49;101609.63;;;23.74;54.91
64200;BME280;50516;52.272;5.136;2023-07-13T10:40:28;101613.53;;;23.19;55.10
64200;BME280;50516;52.272;5.136;2023-07-13T10:42:58;101620.06;;;22.93;55.64
64200;BME280;50516;52.272;5.136;2023-07-13T10:45:29;101620.56;;;23.25;53.73
64200;BME280;50516;52.272;5.136;2023-07-13T10:47:56;101616.06;;;23.75;53.78
64200;BME280;50516;52.272;5.136;2023-07-13T10:50:24;101610.38;;;23.62;54.81
64200;BME280;50516;52.272;5.136;2023-07-13T10:52:52;101620.16;;;23.35;55.94
64200;BME280;50516;52.272;5.136;2023-07-13T10:55:38;101636.19;;;22.96;55.76
64200;BME280;50516;52.272;5.136;2023-07-13T10:58:18;101620.91;;;23.23;55.75
64200;BME280;50516;52.272;5.136;2023-07-13T11:03:22;101627.28;;;23.54;55.07
64200;BME280;50516;52.272;5.136;2023-07-13T11:05:50;101632.31;;;24.02;54.18
64200;BME280;50516;52.272;5.136;2023-07-13T11:10:57;101645.41;;;22.67;55.38
64200;BME280;50516;52.272;5.136;2023-07-13T11:16:35;101638.81;;;23.01;54.21
64200;BME280;50516;52.272;5.136;2023-07-13T11:21:29;101642.78;;;23.72;53.09
64200;BME280;50516;52.272;5.136;2023-07-13T11:26:50;101641.41;;;23.99;52.07
64200;BME280;50516;52.272;5.136;2023-07-13T11:31:55;101651.06;;;23.90;53.02
64200;BME280;50516;52.272;5.136;2023-07-13T11:34:29;101648.22;;;23.77;53.04
64200;BME280;50516;52.272;5.136;2023-07-13T11:36:56;101646.56;;;23.34;54.04
64200;BME280;50516;52.272;5.136;2023-07-13T11:39:29;101653.41;;;23.45;53.99
64200;BME280;50516;52.272;5.136;2023-07-13T11:41:59;101644.56;;;23.56;52.88
64200;BME280;50516;52.272;5.136;2023-07-13T11:44:27;101652.16;;;23.55;53.04
64200;BME280;50516;52.272;5.136;2023-07-13T11:47:08;101655.31;;;23.75;52.37
64200;BME280;50516;52.272;5.136;2023-07-13T11:49:41;101649.47;;;23.88;52.08
64200;BME280;50516;52.272;5.136;2023-07-13T11:52:15;101652.97;;;23.56;51.54
64200;BME280;50516;52.272;5.136;2023-07-13T11:54:47;101657.75;;;23.34;51.58
64200;BME280;50516;52.272;5.136;2023-07-13T11:57:35;101648.94;;;23.44;52.91
64200;BME280;50516;52.272;5.136;2023-07-13T12:00:13;101656.22;;;23.15;52.55
64200;BME280;50516;52.272;5.136;2023-07-13T12:02:46;101649.72;;;22.94;53.87
64200;BME280;50516;52.272;5.136;2023-07-13T12:05:15;101658.84;;;23.21;54.08
64200;BME280;50516;52.272;5.136;2023-07-13T12:07:43;101649.31;;;23.13;53.92
64200;BME280;50516;52.272;5.136;2023-07-13T12:12:36;101655.22;;;23.62;53.61
64200;BME280;50516;52.272;5.136;2023-07-13T12:15:08;101655.19;;;23.92;53.62
64200;BME280;50516;52.272;5.136;2023-07-13T12:17:34;101657.00;;;24.09;53.67
64200;BME280;50516;52.272;5.136;2023-07-13T12:20:03;101654.19;;;24.09;53.29
64200;BME280;50516;52.272;5.136;2023-07-13T12:22:37;101661.69;;;23.63;53.91
64200;BME280;50516;52.272;5.136;2023-07-13T12:25:02;101664.66;;;23.58;54.19
64200;BME280;50516;52.272;5.136;2023-07-13T12:27:30;101656.06;;;23.63;53.58
64200;BME280;50516;52.272;5.136;2023-07-13T12:30:03;101656.41;;;23.82;52.58
64200;BME280;50516;52.272;5.136;2023-07-13T12:32:30;101669.13;;;23.80;52.79
64200;BME280;50516;52.272;5.136;2023-07-13T12:35:16;101661.13;;;23.91;52.19
64200;BME280;50516;52.272;5.136;2023-07-13T12:37:51;101653.09;;;23.38;53.73
64200;BME280;50516;52.272;5.136;2023-07-13T12:40:20;101663.63;;;23.41;52.70
64200;BME280;50516;52.272;5.136;2023-07-13T12:42:49;101659.47;;;23.68;51.72
64200;BME280;50516;52.272;5.136;2023-07-13T12:45:24;101660.03;;;23.62;52.77
64200;BME280;50516;52.272;5.136;2023-07-13T12:47:54;101660.09;;;23.74;52.14
64200;BME280;50516;52.272;5.136;2023-07-13T12:50:37;101657.72;;;23.85;52.20
64200;BME280;50516;52.272;5.136;2023-07-13T12:53:13;101658.22;;;23.36;52.15
64200;BME280;50516;52.272;5.136;2023-07-13T12:55:43;101656.47;;;23.74;52.09
64200;BME280;50516;52.272;5.136;2023-07-13T12:58:16;101654.69;;;24.23;51.72
64200;BME280;50516;52.272;5.136;2023-07-13T13:00:48;101669.00;;;24.43;50.75
64200;BME280;50516;52.272;5.136;2023-07-13T13:06:02;101668.31;;;24.46;51.85
64200;BME280;50516;52.272;5.136;2023-07-13T13:08:34;101671.69;;;24.39;51.77
64200;BME280;50516;52.272;5.136;2023-07-13T13:11:01;101672.03;;;23.92;52.26
64200;BME280;50516;52.272;5.136;2023-07-13T13:13:26;101678.38;;;23.80;52.84
64200;BME280;50516;52.272;5.136;2023-07-13T13:15:51;101674.31;;;24.11;52.46
64200;BME280;50516;52.272;5.136;2023-07-13T13:18:22;101683.91;;;24.10;53.34
64200;BME280;50516;52.272;5.136;2023-07-13T13:20:50;101683.97;;;23.80;52.66
64200;BME280;50516;52.272;5.136;2023-07-13T13:23:18;101683.03;;;23.97;52.18
64200;BME280;50516;52.272;5.136;2023-07-13T13:25:46;101684.47;;;24.37;51.56
64200;BME280;50516;52.272;5.136;2023-07-13T13:28:14;101686.06;;;24.26;50.96